sensor_id;sensor_type;location;lat;lon;timestamp;P1;durP1;ratioP1;P2;durP2;ratioP2
14770;SDS011;7477;45.222;5.688;2024-02-26T00:00:39;0.70;;;0.57;;
14770;SDS011;7477;45.222;5.688;2024-02-26T00:03:59;0.55;;;0.55;;
14770;SDS011;7477;45.222;5.688;2024-02-26T00:07:21;2.78;;;1.77;;
14770;SDS011;7477;45.222;5.688;2024-02-26T00:10:40;0.40;;;0.40;;
14770;SDS011;7477;45.222;5.688;2024-02-26T00:13:59;4.15;;;1.80;;
14770;SDS011;7477;45.222;5.688;2024-02-26T00:17:18;0.30;;;0.30;;
14770;SDS011;7477;45.222;5.688;2024-02-26T00:20:37;3.45;;;2.10;;
14770;SDS011;7477;45.222;5.688;2024-02-26T00:23:58;0.30;;;0.30;;
14770;SDS011;7477;45.222;5.688;2024-02-26T00:27:17;1.58;;;0.40;;
14770;SDS011;7477;45.222;5.688;2024-02-26T00:30:36;0.38;;;0.38;;
14770;SDS011;7477;45.222;5.688;2024-02-26T00:33:56;0.38;;;0.38;;
14770;SDS011;7477;45.222;5.688;2024-02-26T00:37:15;0.45;;;0.45;;
14770;SDS011;7477;45.222;5.688;2024-02-26T00:40:34;0.30;;;0.30;;
14770;SDS011;7477;45.222;5.688;2024-02-26T00:43:56;2.60;;;1.15;;
14770;SDS011;7477;45.222;5.688;2024-02-26T00:47:15;0.50;;;0.50;;
14770;SDS011;7477;45.222;5.688;2024-02-26T00:50:34;1.65;;;1.55;;
14770;SDS011;7477;45.222;5.688;2024-02-26T00:53:54;0.57;;;0.57;;
14770;SDS011;7477;45.222;5.688;2024-02-26T00:57:13;2.38;;;1.95;;
14770;SDS011;7477;45.222;5.688;2024-02-26T01:00:32;0.80;;;0.80;;
14770;SDS011;7477;45.222;5.688;2024-02-26T01:03:52;0.60;;;0.60;;
14770;SDS011;7477;45.222;5.688;2024-02-26T01:07:11;2.20;;;2.00;;
14770;SDS011;7477;45.222;5.688;2024-02-26T01:10:30;1.90;;;1.70;;
14770;SDS011;7477;45.222;5.688;2024-02-26T01:13:50;2.75;;;2.17;;
14770;SDS011;7477;45.222;5.688;2024-02-26T01:17:15;2.47;;;2.28;;
14770;SDS011;7477;45.222;5.688;2024-02-26T01:20:34;2.72;;;2.17;;
14770;SDS011;7477;45.222;5.688;2024-02-26T01:23:53;2.97;;;2.40;;
14770;SDS011;7477;45.222;5.688;2024-02-26T01:27:12;2.78;;;1.90;;
14770;SDS011;7477;45.222;5.688;2024-02-26T01:30:32;2.38;;;1.95;;
14770;SDS011;7477;45.222;5.688;2024-02-26T01:33:51;0.50;;;0.50;;
14770;SDS011;7477;45.222;5.688;2024-02-26T01:37:11;2.65;;;1.95;;
14770;SDS011;7477;45.222;5.688;2024-02-26T01:40:30;0.80;;;0.80;;
14770;SDS011;7477;45.222;5.688;2024-02-26T01:43:50;0.68;;;0.68;;
14770;SDS011;7477;45.222;5.688;2024-02-26T01:47:10;1.52;;;1.33;;
14770;SDS011;7477;45.222;5.688;2024-02-26T01:50:32;2.15;;;1.55;;
14770;SDS011;7477;45.222;5.688;2024-02-26T01:53:53;0.60;;;0.60;;
14770;SDS011;7477;45.222;5.688;2024-02-26T01:57:12;1.63;;;1.35;;
14770;SDS011;7477;45.222;5.688;2024-02-26T02:00:33;1.60;;;1.50;;
14770;SDS011;7477;45.222;5.688;2024-02-26T02:03:53;0.85;;;0.85;;
14770;SDS011;7477;45.222;5.688;2024-02-26T02:07:14;0.63;;;0.63;;
14770;SDS011;7477;45.222;5.688;2024-02-26T02:10:34;2.05;;;1.50;;
14770;SDS011;7477;45.222;5.688;2024-02-26T02:13:54;1.02;;;0.93;;
14770;SDS011;7477;45.222;5.688;2024-02-26T02:17:13;1.40;;;1.15;;
14770;SDS011;7477;45.222;5.688;2024-02-26T02:20:33;0.50;;;0.50;;
14770;SDS011;7477;45.222;5.688;2024-02-26T02:23:52;0.60;;;0.60;;
14770;SDS011;7477;45.222;5.688;2024-02-26T02:27:12;1.00;;;0.90;;
14770;SDS011;7477;45.222;5.688;2024-02-26T02:30:31;0.52;;;0.52;;
14770;SDS011;7477;45.222;5.688;2024-02-26T02:33:51;0.20;;;0.20;;
14770;SDS011;7477;45.222;5.688;2024-02-26T02:37:11;1.55;;;1.27;;
14770;SDS011;7477;45.222;5.688;2024-02-26T02:40:30;1.73;;;1.50;;
14770;SDS011;7477;45.222;5.688;2024-02-26T02:43:49;1.50;;;1.33;;
14770;SDS011;7477;45.222;5.688;2024-02-26T02:47:09;0.40;;;0.40;;
14770;SDS011;7477;45.222;5.688;2024-02-26T02:50:28;1.20;;;1.13;;
14770;SDS011;7477;45.222;5.688;2024-02-26T02:53:47;1.17;;;1.08;;
14770;SDS011;7477;45.222;5.688;2024-02-26T02:57:07;1.52;;;1.30;;
14770;SDS011;7477;45.222;5.688;2024-02-26T03:00:27;1.98;;;1.73;;
14770;SDS011;7477;45.222;5.688;2024-02-26T03:03:46;0.90;;;0.90;;
14770;SDS011;7477;45.222;5.688;2024-02-26T03:07:05;0.88;;;0.47;;
14770;SDS011;7477;45.222;5.688;2024-02-26T03:10:24;0.40;;;0.40;;
14770;SDS011;7477;45.222;5.688;2024-02-26T03:13:43;0.60;;;0.60;;
14770;SDS011;7477;45.222;5.688;2024-02-26T03:17:02;1.20;;;1.10;;
14770;SDS011;7477;45.222;5.688;2024-02-26T03:20:22;0.30;;;0.30;;
14770;SDS011;7477;45.222;5.688;2024-02-26T03:23:42;0.95;;;0.95;;
14770;SDS011;7477;45.222;5.688;2024-02-26T03:27:01;0.30;;;0.30;;
14770;SDS011;7477;45.222;5.688;2024-02-26T03:30:20;1.27;;;1.17;;
14770;SDS011;7477;45.222;5.688;2024-02-26T03:33:40;1.23;;;1.00;;
14770;SDS011;7477;45.222;5.688;2024-02-26T03:36:59;0.30;;;0.30;;
14770;SDS011;7477;45.222;5.688;2024-02-26T03:40:19;0.70;;;0.70;;
14770;SDS011;7477;45.222;5.688;2024-02-26T03:43:38;0.40;;;0.40;;
14770;SDS011;7477;45.222;5.688;2024-02-26T03:46:57;0.95;;;0.95;;
14770;SDS011;7477;45.222;5.688;2024-02-26T03:50:16;0.40;;;0.40;;
14770;SDS011;7477;45.222;5.688;2024-02-26T03:53:35;0.40;;;0.40;;
14770;SDS011;7477;45.222;5.688;2024-02-26T03:56:55;0.85;;;0.85;;
14770;SDS011;7477;45.222;5.688;2024-02-26T04:00:14;0.90;;;0.90;;
14770;SDS011;7477;45.222;5.688;2024-02-26T04:03:34;0.50;;;0.50;;
14770;SDS011;7477;45.222;5.688;2024-02-26T04:06:53;1.20;;;1.10;;
14770;SDS011;7477;45.222;5.688;2024-02-26T04:10:13;1.23;;;1.13;;
14770;SDS011;7477;45.222;5.688;2024-02-26T04:13:33;1.00;;;0.90;;
14770;SDS011;7477;45.222;5.688;2024-02-26T04:16:53;0.40;;;0.40;;
14770;SDS011;7477;45.222;5.688;2024-02-26T04:20:14;0.98;;;0.88;;
14770;SDS011;7477;45.222;5.688;2024-02-26T04:23:34;0.60;;;0.60;;
14770;SDS011;7477;45.222;5.688;2024-02-26T04:26:53;0.90;;;0.90;;
14770;SDS011;7477;45.222;5.688;2024-02-26T04:30:12;2.85;;;0.60;;
14770;SDS011;7477;45.222;5.688;2024-02-26T04:33:33;0.75;;;0.75;;
14770;SDS011;7477;45.222;5.688;2024-02-26T04:36:53;0.50;;;0.50;;
14770;SDS011;7477;45.222;5.688;2024-02-26T04:40:12;0.75;;;0.75;;
14770;SDS011;7477;45.222;5.688;2024-02-26T04:43:31;0.75;;;0.75;;
14770;SDS011;7477;45.222;5.688;2024-02-26T04:46:50;1.58;;;0.82;;
14770;SDS011;7477;45.222;5.688;2024-02-26T04:50:10;1.00;;;0.90;;
14770;SDS011;7477;45.222;5.688;2024-02-26T04:53:29;0.50;;;0.50;;
14770;SDS011;7477;45.222;5.688;2024-02-26T04:56:48;0.30;;;0.30;;
14770;SDS011;7477;45.222;5.688;2024-02-26T05:00:08;0.30;;;0.30;;
14770;SDS011;7477;45.222;5.688;2024-02-26T05:03:28;0.75;;;0.73;;
14770;SDS011;7477;45.222;5.688;2024-02-26T05:06:47;0.70;;;0.70;;
14770;SDS011;7477;45.222;5.688;2024-02-26T05:10:07;1.08;;;0.80;;
14770;SDS011;7477;45.222;5.688;2024-02-26T05:13:26;0.68;;;0.68;;
14770;SDS011;7477;45.222;5.688;2024-02-26T05:16:46;0.40;;;0.40;;
14770;SDS011;7477;45.222;5.688;2024-02-26T05:20:06;0.70;;;0.70;;
14770;SDS011;7477;45.222;5.688;2024-02-26T05:23:26;0.65;;;0.65;;
14770;SDS011;7477;45.222;5.688;2024-02-26T05:26:45;0.85;;;0.85;;
14770;SDS011;7477;45.222;5.688;2024-02-26T05:30:05;0.82;;;0.80;;
14770;SDS011;7477;45.222;5.688;2024-02-26T05:33:25;1.02;;;0.93;;
14770;SDS011;7477;45.222;5.688;2024-02-26T05:36:44;1.48;;;0.93;;
14770;SDS011;7477;45.222;5.688;2024-02-26T05:40:04;0.40;;;0.40;;
14770;SDS011;7477;45.222;5.688;2024-02-26T05:43:25;0.60;;;0.60;;
14770;SDS011;7477;45.222;5.688;2024-02-26T05:46:45;1.00;;;0.90;;
14770;SDS011;7477;45.222;5.688;2024-02-26T05:50:04;0.30;;;0.30;;
14770;SDS011;7477;45.222;5.688;2024-02-26T05:53:24;0.65;;;0.65;;
14770;SDS011;7477;45.222;5.688;2024-02-26T05:56:44;1.02;;;0.90;;
14770;SDS011;7477;45.222;5.688;2024-02-26T06:00:03;1.02;;;0.90;;
14770;SDS011;7477;45.222;5.688;2024-02-26T06:03:22;0.75;;;0.75;;
14770;SDS011;7477;45.222;5.688;2024-02-26T06:06:41;0.30;;;0.30;;
14770;SDS011;7477;45.222;5.688;2024-02-26T06:10:01;0.30;;;0.30;;
14770;SDS011;7477;45.222;5.688;2024-02-26T06:13:21;0.70;;;0.68;;
14770;SDS011;7477;45.222;5.688;2024-02-26T06:20:00;0.50;;;0.50;;
14770;SDS011;7477;45.222;5.688;2024-02-26T06:23:20;0.40;;;0.40;;
14770;SDS011;7477;45.222;5.688;2024-02-26T06:26:39;0.40;;;0.40;;
14770;SDS011;7477;45.222;5.688;2024-02-26T06:29:58;0.55;;;0.55;;
14770;SDS011;7477;45.222;5.688;2024-02-26T06:33:17;0.47;;;0.47;;
14770;SDS011;7477;45.222;5.688;2024-02-26T06:36:36;0.75;;;0.68;;
14770;SDS011;7477;45.222;5.688;2024-02-26T06:39:55;0.43;;;0.43;;
14770;SDS011;7477;45.222;5.688;2024-02-26T06:43:15;0.70;;;0.70;;
14770;SDS011;7477;45.222;5.688;2024-02-26T06:46:34;0.60;;;0.60;;
14770;SDS011;7477;45.222;5.688;2024-02-26T06:49:54;0.50;;;0.50;;
14770;SDS011;7477;45.222;5.688;2024-02-26T06:53:16;0.95;;;0.90;;
14770;SDS011;7477;45.222;5.688;2024-02-26T06:56:35;0.68;;;0.68;;
14770;SDS011;7477;45.222;5.688;2024-02-26T06:59:54;0.52;;;0.52;;
14770;SDS011;7477;45.222;5.688;2024-02-26T07:03:14;0.50;;;0.50;;
14770;SDS011;7477;45.222;5.688;2024-02-26T07:06:33;1.80;;;1.00;;
14770;SDS011;7477;45.222;5.688;2024-02-26T07:09:52;3.20;;;1.20;;
14770;SDS011;7477;45.222;5.688;2024-02-26T07:13:12;2.30;;;1.52;;
14770;SDS011;7477;45.222;5.688;2024-02-26T07:16:31;1.58;;;1.38;;
14770;SDS011;7477;45.222;5.688;2024-02-26T07:19:51;3.67;;;1.10;;
14770;SDS011;7477;45.222;5.688;2024-02-26T07:23:10;1.33;;;0.98;;
14770;SDS011;7477;45.222;5.688;2024-02-26T07:26:29;1.27;;;1.10;;
14770;SDS011;7477;45.222;5.688;2024-02-26T07:29:49;3.70;;;1.08;;
14770;SDS011;7477;45.222;5.688;2024-02-26T07:33:08;1.05;;;0.95;;
14770;SDS011;7477;45.222;5.688;2024-02-26T07:36:27;2.47;;;1.20;;
14770;SDS011;7477;45.222;5.688;2024-02-26T07:39:46;2.75;;;1.25;;
14770;SDS011;7477;45.222;5.688;2024-02-26T07:43:05;1.48;;;1.00;;
14770;SDS011;7477;45.222;5.688;2024-02-26T07:46:27;0.80;;;0.80;;
14770;SDS011;7477;45.222;5.688;2024-02-26T07:49:46;0.43;;;0.40;;
14770;SDS011;7477;45.222;5.688;2024-02-26T07:53:05;0.80;;;0.80;;
14770;SDS011;7477;45.222;5.688;2024-02-26T07:56:25;0.40;;;0.40;;
14770;SDS011;7477;45.222;5.688;2024-02-26T07:59:45;0.40;;;0.40;;
14770;SDS011;7477;45.222;5.688;2024-02-26T08:03:08;0.40;;;0.40;;
14770;SDS011;7477;45.222;5.688;2024-02-26T08:06:27;0.43;;;0.43;;
14770;SDS011;7477;45.222;5.688;2024-02-26T08:09:49;1.05;;;0.73;;
14770;SDS011;7477;45.222;5.688;2024-02-26T08:13:08;1.42;;;1.02;;
14770;SDS011;7477;45.222;5.688;2024-02-26T08:16:28;4.28;;;1.25;;
14770;SDS011;7477;45.222;5.688;2024-02-26T08:19:47;0.70;;;0.70;;
14770;SDS011;7477;45.222;5.688;2024-02-26T08:23:06;0.52;;;0.52;;
14770;SDS011;7477;45.222;5.688;2024-02-26T08:26:25;0.47;;;0.47;;
14770;SDS011;7477;45.222;5.688;2024-02-26T08:29:47;0.45;;;0.45;;
14770;SDS011;7477;45.222;5.688;2024-02-26T08:33:06;0.95;;;0.90;;
14770;SDS011;7477;45.222;5.688;2024-02-26T08:36:26;1.10;;;0.93;;
14770;SDS011;7477;45.222;5.688;2024-02-26T08:39:45;1.30;;;1.20;;
14770;SDS011;7477;45.222;5.688;2024-02-26T08:43:04;8.40;;;1.42;;
14770;SDS011;7477;45.222;5.688;2024-02-26T08:46:23;20.25;;;2.08;;
14770;SDS011;7477;45.222;5.688;2024-02-26T08:49:44;3.50;;;1.50;;
14770;SDS011;7477;45.222;5.688;2024-02-26T08:53:04;1.58;;;1.27;;
14770;SDS011;7477;45.222;5.688;2024-02-26T08:56:24;1.38;;;1.27;;
14770;SDS011;7477;45.222;5.688;2024-02-26T08:59:43;1.75;;;1.33;;
14770;SDS011;7477;45.222;5.688;2024-02-26T09:03:02;1.80;;;1.20;;
14770;SDS011;7477;45.222;5.688;2024-02-26T09:06:22;1.92;;;1.48;;
14770;SDS011;7477;45.222;5.688;2024-02-26T09:09:41;2.03;;;1.38;;
14770;SDS011;7477;45.222;5.688;2024-02-26T09:13:00;2.97;;;1.15;;
14770;SDS011;7477;45.222;5.688;2024-02-26T09:16:19;3.70;;;1.40;;
14770;SDS011;7477;45.222;5.688;2024-02-26T09:19:39;1.73;;;1.20;;
14770;SDS011;7477;45.222;5.688;2024-02-26T09:23:00;3.88;;;1.10;;
14770;SDS011;7477;45.222;5.688;2024-02-26T09:26:20;2.20;;;1.10;;
14770;SDS011;7477;45.222;5.688;2024-02-26T09:29:38;1.13;;;0.95;;
14770;SDS011;7477;45.222;5.688;2024-02-26T09:32:58;1.45;;;1.10;;
14770;SDS011;7477;45.222;5.688;2024-02-26T09:36:17;1.98;;;1.20;;
14770;SDS011;7477;45.222;5.688;2024-02-26T09:39:36;1.48;;;0.93;;
14770;SDS011;7477;45.222;5.688;2024-02-26T09:42:59;0.68;;;0.68;;
14770;SDS011;7477;45.222;5.688;2024-02-26T09:46:20;0.70;;;0.70;;
14770;SDS011;7477;45.222;5.688;2024-02-26T09:49:40;0.57;;;0.57;;
14770;SDS011;7477;45.222;5.688;2024-02-26T09:53:00;0.75;;;0.70;;
14770;SDS011;7477;45.222;5.688;2024-02-26T09:56:21;1.88;;;0.90;;
14770;SDS011;7477;45.222;5.688;2024-02-26T09:59:41;0.70;;;0.70;;
14770;SDS011;7477;45.222;5.688;2024-02-26T10:03:05;0.80;;;0.80;;
14770;SDS011;7477;45.222;5.688;2024-02-26T10:06:29;0.50;;;0.50;;
14770;SDS011;7477;45.222;5.688;2024-02-26T10:09:48;0.45;;;0.45;;
14770;SDS011;7477;45.222;5.688;2024-02-26T10:13:09;0.68;;;0.52;;
14770;SDS011;7477;45.222;5.688;2024-02-26T10:16:30;1.27;;;0.60;;
14770;SDS011;7477;45.222;5.688;2024-02-26T10:19:50;0.65;;;0.65;;
14770;SDS011;7477;45.222;5.688;2024-02-26T10:23:14;0.65;;;0.65;;
14770;SDS011;7477;45.222;5.688;2024-02-26T10:26:33;0.65;;;0.57;;
14770;SDS011;7477;45.222;5.688;2024-02-26T10:29:52;2.25;;;0.63;;
14770;SDS011;7477;45.222;5.688;2024-02-26T10:33:13;0.77;;;0.60;;
14770;SDS011;7477;45.222;5.688;2024-02-26T10:36:33;0.50;;;0.50;;
14770;SDS011;7477;45.222;5.688;2024-02-26T10:39:53;1.58;;;0.77;;
14770;SDS011;7477;45.222;5.688;2024-02-26T10:43:15;0.60;;;0.60;;
14770;SDS011;7477;45.222;5.688;2024-02-26T10:46:35;9.10;;;1.20;;
14770;SDS011;7477;45.222;5.688;2024-02-26T10:49:55;0.63;;;0.60;;
14770;SDS011;7477;45.222;5.688;2024-02-26T10:53:20;4.63;;;1.13;;
14770;SDS011;7477;45.222;5.688;2024-02-26T10:56:41;1.02;;;0.90;;
14770;SDS011;7477;45.222;5.688;2024-02-26T11:00:02;0.40;;;0.40;;
14770;SDS011;7477;45.222;5.688;2024-02-26T11:03:25;0.47;;;0.47;;
14770;SDS011;7477;45.222;5.688;2024-02-26T11:06:45;0.50;;;0.50;;
14770;SDS011;7477;45.222;5.688;2024-02-26T11:10:06;0.68;;;0.50;;
14770;SDS011;7477;45.222;5.688;2024-02-26T11:13:29;0.50;;;0.50;;
14770;SDS011;7477;45.222;5.688;2024-02-26T11:16:50;1.85;;;0.50;;
14770;SDS011;7477;45.222;5.688;2024-02-26T11:20:10;7.25;;;3.30;;
14770;SDS011;7477;45.222;5.688;2024-02-26T11:23:31;7.90;;;4.43;;
14770;SDS011;7477;45.222;5.688;2024-02-26T11:26:54;2.35;;;1.65;;
14770;SDS011;7477;45.222;5.688;2024-02-26T11:30:18;2.00;;;1.30;;
14770;SDS011;7477;45.222;5.688;2024-02-26T11:33:38;0.47;;;0.47;;
14770;SDS011;7477;45.222;5.688;2024-02-26T11:36:57;8.63;;;1.48;;
14770;SDS011;7477;45.222;5.688;2024-02-26T11:40:31;0.47;;;0.47;;
14770;SDS011;7477;45.222;5.688;2024-02-26T11:44:01;0.40;;;0.40;;
14770;SDS011;7477;45.222;5.688;2024-02-26T11:47:21;0.50;;;0.50;;
14770;SDS011;7477;45.222;5.688;2024-02-26T11:50:42;0.30;;;0.30;;
14770;SDS011;7477;45.222;5.688;2024-02-26T11:54:02;0.82;;;0.65;;
14770;SDS011;7477;45.222;5.688;2024-02-26T11:57:22;1.67;;;0.90;;
14770;SDS011;7477;45.222;5.688;2024-02-26T12:00:46;3.55;;;1.50;;
14770;SDS011;7477;45.222;5.688;2024-02-26T12:07:36;0.63;;;0.63;;
14770;SDS011;7477;45.222;5.688;2024-02-26T12:10:58;0.90;;;0.40;;
14770;SDS011;7477;45.222;5.688;2024-02-26T12:14:18;2.00;;;1.05;;
14770;SDS011;7477;45.222;5.688;2024-02-26T12:17:40;0.70;;;0.70;;
14770;SDS011;7477;45.222;5.688;2024-02-26T12:21:00;0.80;;;0.80;;
14770;SDS011;7477;45.222;5.688;2024-02-26T12:24:20;1.88;;;1.42;;
14770;SDS011;7477;45.222;5.688;2024-02-26T12:27:40;0.60;;;0.60;;
14770;SDS011;7477;45.222;5.688;2024-02-26T12:31:00;1.35;;;0.85;;
14770;SDS011;7477;45.222;5.688;2024-02-26T12:34:19;0.95;;;0.90;;
14770;SDS011;7477;45.222;5.688;2024-02-26T12:37:39;0.50;;;0.50;;
14770;SDS011;7477;45.222;5.688;2024-02-26T12:40:58;2.15;;;0.63;;
14770;SDS011;7477;45.222;5.688;2024-02-26T12:44:24;2.03;;;0.65;;
14770;SDS011;7477;45.222;5.688;2024-02-26T12:47:44;0.45;;;0.45;;
14770;SDS011;7477;45.222;5.688;2024-02-26T12:51:11;4.50;;;0.80;;
14770;SDS011;7477;45.222;5.688;2024-02-26T12:54:31;3.65;;;1.17;;
14770;SDS011;7477;45.222;5.688;2024-02-26T12:57:51;1.70;;;0.90;;
14770;SDS011;7477;45.222;5.688;2024-02-26T13:01:14;0.85;;;0.82;;
14770;SDS011;7477;45.222;5.688;2024-02-26T13:04:36;1.50;;;1.15;;
14770;SDS011;7477;45.222;5.688;2024-02-26T13:07:56;1.20;;;1.00;;
14770;SDS011;7477;45.222;5.688;2024-02-26T13:11:15;0.80;;;0.80;;
14770;SDS011;7477;45.222;5.688;2024-02-26T13:14:34;1.20;;;1.10;;
14770;SDS011;7477;45.222;5.688;2024-02-26T13:17:54;0.73;;;0.73;;
14770;SDS011;7477;45.222;5.688;2024-02-26T13:21:15;1.55;;;1.45;;
14770;SDS011;7477;45.222;5.688;2024-02-26T13:24:36;1.23;;;1.10;;
14770;SDS011;7477;45.222;5.688;2024-02-26T13:28:15;1.73;;;1.58;;
14770;SDS011;7477;45.222;5.688;2024-02-26T13:31:38;0.65;;;0.65;;
14770;SDS011;7477;45.222;5.688;2024-02-26T13:35:07;2.28;;;0.80;;
14770;SDS011;7477;45.222;5.688;2024-02-26T13:38:28;1.77;;;1.35;;
14770;SDS011;7477;45.222;5.688;2024-02-26T13:41:47;2.28;;;1.55;;
14770;SDS011;7477;45.222;5.688;2024-02-26T13:45:06;0.70;;;0.70;;
14770;SDS011;7477;45.222;5.688;2024-02-26T13:48:26;1.50;;;1.20;;
14770;SDS011;7477;45.222;5.688;2024-02-26T13:51:46;1.63;;;0.85;;
14770;SDS011;7477;45.222;5.688;2024-02-26T13:55:05;1.25;;;0.90;;
14770;SDS011;7477;45.222;5.688;2024-02-26T13:58:26;2.97;;;1.38;;
14770;SDS011;7477;45.222;5.688;2024-02-26T14:01:46;1.13;;;0.90;;
14770;SDS011;7477;45.222;5.688;2024-02-26T14:05:05;3.95;;;0.80;;
14770;SDS011;7477;45.222;5.688;2024-02-26T14:08:25;1.13;;;0.90;;
14770;SDS011;7477;45.222;5.688;2024-02-26T14:11:45;1.17;;;1.08;;
14770;SDS011;7477;45.222;5.688;2024-02-26T14:15:07;0.70;;;0.70;;
14770;SDS011;7477;45.222;5.688;2024-02-26T14:18:28;1.20;;;1.00;;
14770;SDS011;7477;45.222;5.688;2024-02-26T14:21:47;1.58;;;0.73;;
14770;SDS011;7477;45.222;5.688;2024-02-26T14:25:10;1.30;;;1.00;;
14770;SDS011;7477;45.222;5.688;2024-02-26T14:28:29;0.88;;;0.75;;
14770;SDS011;7477;45.222;5.688;2024-02-26T14:31:50;0.90;;;0.90;;
14770;SDS011;7477;45.222;5.688;2024-02-26T14:35:09;1.67;;;0.80;;
14770;SDS011;7477;45.222;5.688;2024-02-26T14:38:29;1.00;;;0.90;;
14770;SDS011;7477;45.222;5.688;2024-02-26T14:41:49;3.95;;;1.08;;
14770;SDS011;7477;45.222;5.688;2024-02-26T14:45:08;1.50;;;0.90;;
14770;SDS011;7477;45.222;5.688;2024-02-26T14:48:28;1.35;;;1.00;;
14770;SDS011;7477;45.222;5.688;2024-02-26T14:51:49;3.30;;;2.47;;
14770;SDS011;7477;45.222;5.688;2024-02-26T14:55:11;2.85;;;2.00;;
14770;SDS011;7477;45.222;5.688;2024-02-26T14:58:30;1.67;;;1.17;;
14770;SDS011;7477;45.222;5.688;2024-02-26T15:01:49;5.93;;;0.80;;
14770;SDS011;7477;45.222;5.688;2024-02-26T15:05:08;1.70;;;1.20;;
14770;SDS011;7477;45.222;5.688;2024-02-26T15:08:29;2.13;;;1.67;;
14770;SDS011;7477;45.222;5.688;2024-02-26T15:11:50;4.20;;;2.42;;
14770;SDS011;7477;45.222;5.688;2024-02-26T15:15:09;0.90;;;0.90;;
14770;SDS011;7477;45.222;5.688;2024-02-26T15:18:28;1.63;;;0.60;;
14770;SDS011;7477;45.222;5.688;2024-02-26T15:21:48;4.57;;;0.93;;
14770;SDS011;7477;45.222;5.688;2024-02-26T15:25:08;5.63;;;0.90;;
14770;SDS011;7477;45.222;5.688;2024-02-26T15:28:27;2.97;;;1.27;;
14770;SDS011;7477;45.222;5.688;2024-02-26T15:31:47;6.40;;;1.63;;
14770;SDS011;7477;45.222;5.688;2024-02-26T15:35:06;2.22;;;1.00;;
14770;SDS011;7477;45.222;5.688;2024-02-26T15:38:26;3.58;;;1.95;;
14770;SDS011;7477;45.222;5.688;2024-02-26T15:41:46;1.67;;;1.38;;
14770;SDS011;7477;45.222;5.688;2024-02-26T15:45:05;1.92;;;1.63;;
14770;SDS011;7477;45.222;5.688;2024-02-26T15:48:25;0.80;;;0.80;;
14770;SDS011;7477;45.222;5.688;2024-02-26T15:51:44;2.03;;;1.20;;
14770;SDS011;7477;45.222;5.688;2024-02-26T15:55:04;1.15;;;0.98;;
14770;SDS011;7477;45.222;5.688;2024-02-26T15:58:24;2.65;;;1.17;;
14770;SDS011;7477;45.222;5.688;2024-02-26T16:01:43;4.03;;;1.20;;
14770;SDS011;7477;45.222;5.688;2024-02-26T16:05:04;1.33;;;1.08;;
14770;SDS011;7477;45.222;5.688;2024-02-26T16:08:24;1.58;;;1.00;;
14770;SDS011;7477;45.222;5.688;2024-02-26T16:11:43;1.98;;;1.10;;
14770;SDS011;7477;45.222;5.688;2024-02-26T16:15:03;1.38;;;1.10;;
14770;SDS011;7477;45.222;5.688;2024-02-26T16:18:23;3.17;;;1.25;;
14770;SDS011;7477;45.222;5.688;2024-02-26T16:21:42;4.47;;;1.00;;
14770;SDS011;7477;45.222;5.688;2024-02-26T16:25:02;3.30;;;1.38;;
14770;SDS011;7477;45.222;5.688;2024-02-26T16:28:22;3.08;;;2.08;;
14770;SDS011;7477;45.222;5.688;2024-02-26T16:31:44;3.63;;;2.70;;
14770;SDS011;7477;45.222;5.688;2024-02-26T16:35:04;2.42;;;1.70;;
14770;SDS011;7477;45.222;5.688;2024-02-26T16:38:24;3.47;;;2.35;;
14770;SDS011;7477;45.222;5.688;2024-02-26T16:41:45;6.68;;;4.18;;
14770;SDS011;7477;45.222;5.688;2024-02-26T16:45:04;6.43;;;2.80;;
14770;SDS011;7477;45.222;5.688;2024-02-26T16:48:23;2.88;;;1.92;;
14770;SDS011;7477;45.222;5.688;2024-02-26T16:51:43;3.35;;;2.40;;
14770;SDS011;7477;45.222;5.688;2024-02-26T16:55:02;2.40;;;1.58;;
14770;SDS011;7477;45.222;5.688;2024-02-26T16:58:22;5.07;;;1.30;;
14770;SDS011;7477;45.222;5.688;2024-02-26T17:01:47;2.75;;;0.77;;
14770;SDS011;7477;45.222;5.688;2024-02-26T17:05:06;1.83;;;1.02;;
14770;SDS011;7477;45.222;5.688;2024-02-26T17:08:28;1.73;;;1.48;;
14770;SDS011;7477;45.222;5.688;2024-02-26T17:11:52;4.60;;;1.50;;
14770;SDS011;7477;45.222;5.688;2024-02-26T17:15:12;2.22;;;1.05;;
14770;SDS011;7477;45.222;5.688;2024-02-26T17:18:32;1.23;;;1.10;;
14770;SDS011;7477;45.222;5.688;2024-02-26T17:21:51;4.30;;;1.50;;
14770;SDS011;7477;45.222;5.688;2024-02-26T17:25:12;9.25;;;1.95;;
14770;SDS011;7477;45.222;5.688;2024-02-26T17:28:32;5.95;;;1.38;;
14770;SDS011;7477;45.222;5.688;2024-02-26T17:31:51;2.92;;;1.77;;
14770;SDS011;7477;45.222;5.688;2024-02-26T17:35:11;2.30;;;1.83;;
14770;SDS011;7477;45.222;5.688;2024-02-26T17:38:34;4.65;;;3.00;;
14770;SDS011;7477;45.222;5.688;2024-02-26T17:41:54;4.57;;;2.92;;
14770;SDS011;7477;45.222;5.688;2024-02-26T17:45:13;7.35;;;3.78;;
14770;SDS011;7477;45.222;5.688;2024-02-26T17:48:32;3.95;;;3.45;;
14770;SDS011;7477;45.222;5.688;2024-02-26T17:51:53;3.33;;;3.00;;
14770;SDS011;7477;45.222;5.688;2024-02-26T17:55:15;7.20;;;3.00;;
14770;SDS011;7477;45.222;5.688;2024-02-26T17:58:34;5.93;;;2.30;;
14770;SDS011;7477;45.222;5.688;2024-02-26T18:01:59;2.63;;;1.65;;
14770;SDS011;7477;45.222;5.688;2024-02-26T18:05:18;2.42;;;1.98;;
14770;SDS011;7477;45.222;5.688;2024-02-26T18:08:37;2.47;;;2.03;;
14770;SDS011;7477;45.222;5.688;2024-02-26T18:11:56;5.90;;;2.67;;
14770;SDS011;7477;45.222;5.688;2024-02-26T18:15:16;5.90;;;3.92;;
14770;SDS011;7477;45.222;5.688;2024-02-26T18:18:35;6.40;;;4.15;;
14770;SDS011;7477;45.222;5.688;2024-02-26T18:21:54;3.88;;;2.42;;
14770;SDS011;7477;45.222;5.688;2024-02-26T18:25:14;3.25;;;1.60;;
14770;SDS011;7477;45.222;5.688;2024-02-26T18:28:35;3.53;;;1.92;;
14770;SDS011;7477;45.222;5.688;2024-02-26T18:31:55;2.45;;;2.08;;
14770;SDS011;7477;45.222;5.688;2024-02-26T18:35:14;4.95;;;2.30;;
14770;SDS011;7477;45.222;5.688;2024-02-26T18:38:33;2.83;;;2.25;;
14770;SDS011;7477;45.222;5.688;2024-02-26T18:41:53;3.70;;;1.95;;
14770;SDS011;7477;45.222;5.688;2024-02-26T18:45:14;1.83;;;1.25;;
14770;SDS011;7477;45.222;5.688;2024-02-26T18:48:33;1.33;;;1.23;;
14770;SDS011;7477;45.222;5.688;2024-02-26T18:51:53;2.55;;;1.27;;
14770;SDS011;7477;45.222;5.688;2024-02-26T18:55:13;9.70;;;6.30;;
14770;SDS011;7477;45.222;5.688;2024-02-26T18:58:34;7.50;;;4.50;;
14770;SDS011;7477;45.222;5.688;2024-02-26T19:01:54;11.00;;;9.18;;
14770;SDS011;7477;45.222;5.688;2024-02-26T19:05:13;5.25;;;3.70;;
14770;SDS011;7477;45.222;5.688;2024-02-26T19:08:32;4.88;;;3.60;;
14770;SDS011;7477;45.222;5.688;2024-02-26T19:11:52;5.53;;;3.92;;
14770;SDS011;7477;45.222;5.688;2024-02-26T19:15:13;4.78;;;3.47;;
14770;SDS011;7477;45.222;5.688;2024-02-26T19:18:36;4.05;;;2.63;;
14770;SDS011;7477;45.222;5.688;2024-02-26T19:21:55;7.20;;;4.75;;
14770;SDS011;7477;45.222;5.688;2024-02-26T19:25:16;3.28;;;2.13;;
14770;SDS011;7477;45.222;5.688;2024-02-26T19:28:35;3.50;;;2.80;;
14770;SDS011;7477;45.222;5.688;2024-02-26T19:31:54;6.10;;;2.83;;
14770;SDS011;7477;45.222;5.688;2024-02-26T19:35:14;2.63;;;2.20;;
14770;SDS011;7477;45.222;5.688;2024-02-26T19:38:33;4.40;;;3.00;;
14770;SDS011;7477;45.222;5.688;2024-02-26T19:41:53;2.70;;;2.50;;
14770;SDS011;7477;45.222;5.688;2024-02-26T19:45:12;5.88;;;2.97;;
14770;SDS011;7477;45.222;5.688;2024-02-26T19:48:32;3.78;;;2.08;;
14770;SDS011;7477;45.222;5.688;2024-02-26T19:51:51;2.00;;;1.55;;
14770;SDS011;7477;45.222;5.688;2024-02-26T19:55:12;3.45;;;1.92;;
14770;SDS011;7477;45.222;5.688;2024-02-26T19:58:33;1.98;;;1.77;;
14770;SDS011;7477;45.222;5.688;2024-02-26T20:01:52;3.80;;;2.17;;
14770;SDS011;7477;45.222;5.688;2024-02-26T20:05:11;6.85;;;3.35;;
14770;SDS011;7477;45.222;5.688;2024-02-26T20:08:31;4.88;;;2.90;;
14770;SDS011;7477;45.222;5.688;2024-02-26T20:11:50;2.67;;;1.15;;
14770;SDS011;7477;45.222;5.688;2024-02-26T20:15:09;2.10;;;1.88;;
14770;SDS011;7477;45.222;5.688;2024-02-26T20:18:29;1.52;;;1.42;;
14770;SDS011;7477;45.222;5.688;2024-02-26T20:21:48;5.07;;;4.57;;
14770;SDS011;7477;45.222;5.688;2024-02-26T20:25:07;4.03;;;2.88;;
14770;SDS011;7477;45.222;5.688;2024-02-26T20:28:26;1.90;;;1.58;;